sensor_id;sensor_type;location;lat;lon;timestamp;temperature;humidity
26186;DHT22;20067;48.764;9.176;2024-03-07T00:01:29;7.80;91.30
26186;DHT22;20067;48.764;9.176;2024-03-07T00:03:55;7.70;91.30
26186;DHT22;20067;48.764;9.176;2024-03-07T00:06:20;7.70;91.30
26186;DHT22;20067;48.764;9.176;2024-03-07T00:08:46;7.80;91.30
26186;DHT22;20067;48.764;9.176;2024-03-07T00:11:12;8.00;91.30
26186;DHT22;20067;48.764;9.176;2024-03-07T00:13:37;8.10;91.30
26186;DHT22;20067;48.764;9.176;2024-03-07T00:16:03;8.10;91.30
26186;DHT22;20067;48.764;9.176;2024-03-07T00:18:29;7.90;91.30
26186;DHT22;20067;48.764;9.176;2024-03-07T00:20:55;7.90;91.30
26186;DHT22;20067;48.764;9.176;2024-03-07T00:23:21;8.00;91.30
26186;DHT22;20067;48.764;9.176;2024-03-07T00:25:46;7.80;91.30
26186;DHT22;20067;48.764;9.176;2024-03-07T00:28:16;7.90;91.30
26186;DHT22;20067;48.764;9.176;2024-03-07T00:30:45;7.90;91.30
26186;DHT22;20067;48.764;9.176;2024-03-07T00:33:13;7.90;91.30
26186;DHT22;20067;48.764;9.176;2024-03-07T00:35:39;7.80;91.30
26186;DHT22;20067;48.764;9.176;2024-03-07T00:38:04;8.00;91.30
26186;DHT22;20067;48.764;9.176;2024-03-07T00:40:32;8.00;91.30
26186;DHT22;20067;48.764;9.176;2024-03-07T00:42:57;8.00;91.30
26186;DHT22;20067;48.764;9.176;2024-03-07T00:45:24;8.30;91.30
26186;DHT22;20067;48.764;9.176;2024-03-07T00:47:50;8.30;91.30
26186;DHT22;20067;48.764;9.176;2024-03-07T00:50:15;8.30;91.30
26186;DHT22;20067;48.764;9.176;2024-03-07T00:52:41;8.20;91.30
26186;DHT22;20067;48.764;9.176;2024-03-07T00:55:07;7.90;91.30
26186;DHT22;20067;48.764;9.176;2024-03-07T00:57:36;7.70;91.30
26186;DHT22;20067;48.764;9.176;2024-03-07T01:00:02;7.70;91.30
26186;DHT22;20067;48.764;9.176;2024-03-07T01:02:28;7.90;91.30
26186;DHT22;20067;48.764;9.176;2024-03-07T01:04:55;7.80;91.30
26186;DHT22;20067;48.764;9.176;2024-03-07T01:07:20;7.90;91.30
26186;DHT22;20067;48.764;9.176;2024-03-07T01:09:47;8.10;91.30
26186;DHT22;20067;48.764;9.176;2024-03-07T01:12:13;7.90;91.30
26186;DHT22;20067;48.764;9.176;2024-03-07T01:14:38;8.20;91.30
26186;DHT22;20067;48.764;9.176;2024-03-07T01:17:04;8.10;91.30
26186;DHT22;20067;48.764;9.176;2024-03-07T01:19:33;8.00;91.30
26186;DHT22;20067;48.764;9.176;2024-03-07T01:21:59;8.10;91.30
26186;DHT22;20067;48.764;9.176;2024-03-07T01:24:24;7.90;91.30
26186;DHT22;20067;48.764;9.176;2024-03-07T01:26:50;7.60;91.30
26186;DHT22;20067;48.764;9.176;2024-03-07T01:29:16;7.50;91.30
26186;DHT22;20067;48.764;9.176;2024-03-07T01:31:41;7.60;91.30
26186;DHT22;20067;48.764;9.176;2024-03-07T01:34:07;7.60;91.30
26186;DHT22;20067;48.764;9.176;2024-03-07T01:36:32;7.90;91.30
26186;DHT22;20067;48.764;9.176;2024-03-07T01:38:58;7.80;91.30
26186;DHT22;20067;48.764;9.176;2024-03-07T01:41:23;7.80;91.30
26186;DHT22;20067;48.764;9.176;2024-03-07T01:43:49;7.70;91.30
26186;DHT22;20067;48.764;9.176;2024-03-07T01:46:15;7.80;91.30
26186;DHT22;20067;48.764;9.176;2024-03-07T01:48:41;7.50;91.30
26186;DHT22;20067;48.764;9.176;2024-03-07T01:51:07;7.40;91.30
26186;DHT22;20067;48.764;9.176;2024-03-07T01:53:34;7.30;91.30
26186;DHT22;20067;48.764;9.176;2024-03-07T01:56:02;7.30;91.30
26186;DHT22;20067;48.764;9.176;2024-03-07T01:58:29;7.20;91.30
26186;DHT22;20067;48.764;9.176;2024-03-07T02:00:55;7.40;91.30
26186;DHT22;20067;48.764;9.176;2024-03-07T02:03:21;7.50;91.30
26186;DHT22;20067;48.764;9.176;2024-03-07T02:05:47;7.50;91.30
26186;DHT22;20067;48.764;9.176;2024-03-07T02:08:12;7.30;91.30
26186;DHT22;20067;48.764;9.176;2024-03-07T02:10:40;7.00;91.30
26186;DHT22;20067;48.764;9.176;2024-03-07T02:13:06;7.00;91.30
26186;DHT22;20067;48.764;9.176;2024-03-07T02:15:32;7.00;91.30
26186;DHT22;20067;48.764;9.176;2024-03-07T02:17:58;6.80;91.30
26186;DHT22;20067;48.764;9.176;2024-03-07T02:20:23;6.70;91.30
26186;DHT22;20067;48.764;9.176;2024-03-07T02:22:49;6.50;91.30
26186;DHT22;20067;48.764;9.176;2024-03-07T02:25:16;6.40;91.30
26186;DHT22;20067;48.764;9.176;2024-03-07T02:27:42;6.80;91.30
26186;DHT22;20067;48.764;9.176;2024-03-07T02:30:08;6.90;91.30
26186;DHT22;20067;48.764;9.176;2024-03-07T02:32:37;6.80;91.30
26186;DHT22;20067;48.764;9.176;2024-03-07T02:35:06;6.80;91.30
26186;DHT22;20067;48.764;9.176;2024-03-07T02:37:33;6.80;91.30
26186;DHT22;20067;48.764;9.176;2024-03-07T02:39:59;6.70;91.30
26186;DHT22;20067;48.764;9.176;2024-03-07T02:42:25;6.70;91.30
26186;DHT22;20067;48.764;9.176;2024-03-07T02:44:51;6.60;91.30
26186;DHT22;20067;48.764;9.176;2024-03-07T02:47:18;6.70;91.30
26186;DHT22;20067;48.764;9.176;2024-03-07T02:49:44;6.50;91.30
26186;DHT22;20067;48.764;9.176;2024-03-07T02:52:09;6.60;91.30
26186;DHT22;20067;48.764;9.176;2024-03-07T02:54:35;6.70;91.30
26186;DHT22;20067;48.764;9.176;2024-03-07T02:57:01;6.80;91.30
26186;DHT22;20067;48.764;9.176;2024-03-07T02:59:27;6.70;91.30
26186;DHT22;20067;48.764;9.176;2024-03-07T03:01:53;6.70;91.30
26186;DHT22;20067;48.764;9.176;2024-03-07T03:04:18;6.70;91.30
26186;DHT22;20067;48.764;9.176;2024-03-07T03:06:44;6.70;91.30
26186;DHT22;20067;48.764;9.176;2024-03-07T03:09:11;6.60;91.30
26186;DHT22;20067;48.764;9.176;2024-03-07T03:11:43;6.50;91.30
26186;DHT22;20067;48.764;9.176;2024-03-07T03:14:08;6.40;91.30
26186;DHT22;20067;48.764;9.176;2024-03-07T03:16:36;6.40;91.30
26186;DHT22;20067;48.764;9.176;2024-03-07T03:19:01;6.30;91.30
26186;DHT22;20067;48.764;9.176;2024-03-07T03:21:27;6.20;91.30
26186;DHT22;20067;48.764;9.176;2024-03-07T03:23:52;6.10;91.30
26186;DHT22;20067;48.764;9.176;2024-03-07T03:26:20;5.90;91.30
26186;DHT22;20067;48.764;9.176;2024-03-07T03:28:47;5.70;91.30
26186;DHT22;20067;48.764;9.176;2024-03-07T03:31:12;5.60;91.30
26186;DHT22;20067;48.764;9.176;2024-03-07T03:33:39;5.50;91.30
26186;DHT22;20067;48.764;9.176;2024-03-07T03:36:06;5.40;91.30
26186;DHT22;20067;48.764;9.176;2024-03-07T03:38:32;5.30;91.30
26186;DHT22;20067;48.764;9.176;2024-03-07T03:40:58;5.20;91.30
26186;DHT22;20067;48.764;9.176;2024-03-07T03:43:23;5.20;91.30
26186;DHT22;20067;48.764;9.176;2024-03-07T03:45:49;5.20;91.30
26186;DHT22;20067;48.764;9.176;2024-03-07T03:48:14;5.20;91.30
26186;DHT22;20067;48.764;9.176;2024-03-07T03:50:40;5.30;91.30
26186;DHT22;20067;48.764;9.176;2024-03-07T03:53:06;5.30;91.30
26186;DHT22;20067;48.764;9.176;2024-03-07T03:55:33;5.30;91.30
26186;DHT22;20067;48.764;9.176;2024-03-07T03:57:59;5.30;91.30
26186;DHT22;20067;48.764;9.176;2024-03-07T04:00:25;5.40;91.30
26186;DHT22;20067;48.764;9.176;2024-03-07T04:02:51;5.40;91.30
26186;DHT22;20067;48.764;9.176;2024-03-07T04:05:18;5.40;91.30
26186;DHT22;20067;48.764;9.176;2024-03-07T04:07:45;5.40;91.30
26186;DHT22;20067;48.764;9.176;2024-03-07T04:10:12;5.30;91.30
26186;DHT22;20067;48.764;9.176;2024-03-07T04:12:39;5.30;91.30
26186;DHT22;20067;48.764;9.176;2024-03-07T04:15:06;5.30;91.30
26186;DHT22;20067;48.764;9.176;2024-03-07T04:17:36;5.30;91.30
26186;DHT22;20067;48.764;9.176;2024-03-07T04:20:03;5.30;91.30
26186;DHT22;20067;48.764;9.176;2024-03-07T04:22:33;5.30;91.30
26186;DHT22;20067;48.764;9.176;2024-03-07T04:25:00;5.40;91.30
26186;DHT22;20067;48.764;9.176;2024-03-07T04:27:26;5.50;91.30
26186;DHT22;20067;48.764;9.176;2024-03-07T04:29:52;5.60;91.30
26186;DHT22;20067;48.764;9.176;2024-03-07T04:32:18;5.70;91.30
26186;DHT22;20067;48.764;9.176;2024-03-07T04:34:46;5.70;91.30
26186;DHT22;20067;48.764;9.176;2024-03-07T04:37:12;5.80;91.30
26186;DHT22;20067;48.764;9.176;2024-03-07T04:39:41;5.70;91.30
26186;DHT22;20067;48.764;9.176;2024-03-07T04:42:07;5.70;91.30
26186;DHT22;20067;48.764;9.176;2024-03-07T04:44:35;5.60;91.30
26186;DHT22;20067;48.764;9.176;2024-03-07T04:47:02;5.70;91.30
26186;DHT22;20067;48.764;9.176;2024-03-07T04:49:31;5.60;91.30
26186;DHT22;20067;48.764;9.176;2024-03-07T04:51:58;5.60;91.30
26186;DHT22;20067;48.764;9.176;2024-03-07T04:54:24;5.60;91.30
26186;DHT22;20067;48.764;9.176;2024-03-07T04:56:51;5.50;91.30
26186;DHT22;20067;48.764;9.176;2024-03-07T04:59:19;5.40;91.30
26186;DHT22;20067;48.764;9.176;2024-03-07T05:01:45;5.30;91.30
26186;DHT22;20067;48.764;9.176;2024-03-07T05:04:12;5.30;91.30
26186;DHT22;20067;48.764;9.176;2024-03-07T05:06:38;5.30;91.30
26186;DHT22;20067;48.764;9.176;2024-03-07T05:09:04;5.20;91.30
26186;DHT22;20067;48.764;9.176;2024-03-07T05:11:30;5.10;91.30
26186;DHT22;20067;48.764;9.176;2024-03-07T05:13:57;5.10;91.30
26186;DHT22;20067;48.764;9.176;2024-03-07T05:16:29;5.10;91.30
26186;DHT22;20067;48.764;9.176;2024-03-07T05:18:56;5.00;91.30
26186;DHT22;20067;48.764;9.176;2024-03-07T05:21:25;4.90;91.30
26186;DHT22;20067;48.764;9.176;2024-03-07T05:24:09;4.90;91.30
26186;DHT22;20067;48.764;9.176;2024-03-07T05:26:35;5.00;91.30
26186;DHT22;20067;48.764;9.176;2024-03-07T05:29:07;5.10;91.30
26186;DHT22;20067;48.764;9.176;2024-03-07T05:31:37;5.10;91.30
26186;DHT22;20067;48.764;9.176;2024-03-07T05:34:04;5.10;91.30
26186;DHT22;20067;48.764;9.176;2024-03-07T05:36:34;5.10;91.30
26186;DHT22;20067;48.764;9.176;2024-03-07T05:39:00;5.10;91.30
26186;DHT22;20067;48.764;9.176;2024-03-07T05:41:26;4.90;91.30
26186;DHT22;20067;48.764;9.176;2024-03-07T05:43:55;4.90;91.30
26186;DHT22;20067;48.764;9.176;2024-03-07T05:46:21;5.00;91.30
26186;DHT22;20067;48.764;9.176;2024-03-07T05:48:46;4.90;91.30
26186;DHT22;20067;48.764;9.176;2024-03-07T05:51:15;4.90;91.30
26186;DHT22;20067;48.764;9.176;2024-03-07T05:53:41;4.90;91.30
26186;DHT22;20067;48.764;9.176;2024-03-07T05:56:07;4.80;91.30
26186;DHT22;20067;48.764;9.176;2024-03-07T05:58:33;4.70;91.30
26186;DHT22;20067;48.764;9.176;2024-03-07T06:00:59;4.60;91.30
26186;DHT22;20067;48.764;9.176;2024-03-07T06:03:25;4.60;91.30
26186;DHT22;20067;48.764;9.176;2024-03-07T06:05:51;4.60;91.30
26186;DHT22;20067;48.764;9.176;2024-03-07T06:08:20;4.50;91.30
26186;DHT22;20067;48.764;9.176;2024-03-07T06:10:47;4.40;91.30
26186;DHT22;20067;48.764;9.176;2024-03-07T06:13:14;4.20;91.30
26186;DHT22;20067;48.764;9.176;2024-03-07T06:15:43;4.10;91.30
26186;DHT22;20067;48.764;9.176;2024-03-07T06:18:10;4.10;91.30
26186;DHT22;20067;48.764;9.176;2024-03-07T06:20:43;4.00;91.30
26186;DHT22;20067;48.764;9.176;2024-03-07T06:23:09;4.10;91.30
26186;DHT22;20067;48.764;9.176;2024-03-07T06:25:37;4.20;91.30
26186;DHT22;20067;48.764;9.176;2024-03-07T06:28:13;4.30;91.30
26186;DHT22;20067;48.764;9.176;2024-03-07T06:30:40;4.50;91.30
26186;DHT22;20067;48.764;9.176;2024-03-07T06:33:06;4.60;91.30
26186;DHT22;20067;48.764;9.176;2024-03-07T06:35:32;4.40;91.30
26186;DHT22;20067;48.764;9.176;2024-03-07T06:38:03;4.50;91.30
26186;DHT22;20067;48.764;9.176;2024-03-07T06:40:29;4.60;91.30
26186;DHT22;20067;48.764;9.176;2024-03-07T06:42:55;4.70;91.30
26186;DHT22;20067;48.764;9.176;2024-03-07T06:45:21;4.80;91.30
26186;DHT22;20067;48.764;9.176;2024-03-07T06:47:50;4.70;91.30
26186;DHT22;20067;48.764;9.176;2024-03-07T06:50:18;4.60;91.30
26186;DHT22;20067;48.764;9.176;2024-03-07T06:52:45;4.50;91.30
26186;DHT22;20067;48.764;9.176;2024-03-07T06:55:16;4.80;91.30
26186;DHT22;20067;48.764;9.176;2024-03-07T06:57:45;5.00;91.30
26186;DHT22;20067;48.764;9.176;2024-03-07T07:00:12;4.90;91.30
26186;DHT22;20067;48.764;9.176;2024-03-07T07:02:40;5.10;91.30
26186;DHT22;20067;48.764;9.176;2024-03-07T07:05:07;5.20;91.30
26186;DHT22;20067;48.764;9.176;2024-03-07T07:07:39;5.50;91.30
26186;DHT22;20067;48.764;9.176;2024-03-07T07:10:08;5.60;91.30
26186;DHT22;20067;48.764;9.176;2024-03-07T07:12:37;5.40;91.30
26186;DHT22;20067;48.764;9.176;2024-03-07T07:15:03;5.70;91.30
26186;DHT22;20067;48.764;9.176;2024-03-07T07:17:29;5.70;91.30
26186;DHT22;20067;48.764;9.176;2024-03-07T07:20:05;5.10;91.30
26186;DHT22;20067;48.764;9.176;2024-03-07T07:22:39;5.60;91.30
26186;DHT22;20067;48.764;9.176;2024-03-07T07:25:06;5.70;91.30
26186;DHT22;20067;48.764;9.176;2024-03-07T07:27:42;5.30;91.30
26186;DHT22;20067;48.764;9.176;2024-03-07T07:30:09;5.40;91.30
26186;DHT22;20067;48.764;9.176;2024-03-07T07:32:35;5.90;91.30
26186;DHT22;20067;48.764;9.176;2024-03-07T07:35:02;6.20;91.30
26186;DHT22;20067;48.764;9.176;2024-03-07T07:37:28;6.20;91.30
26186;DHT22;20067;48.764;9.176;2024-03-07T07:39:54;6.00;91.30
26186;DHT22;20067;48.764;9.176;2024-03-07T07:42:19;6.00;91.30
26186;DHT22;20067;48.764;9.176;2024-03-07T07:44:45;5.90;91.30
26186;DHT22;20067;48.764;9.176;2024-03-07T07:47:11;5.80;91.30
26186;DHT22;20067;48.764;9.176;2024-03-07T07:49:38;5.90;91.30
26186;DHT22;20067;48.764;9.176;2024-03-07T07:52:05;5.70;91.30
26186;DHT22;20067;48.764;9.176;2024-03-07T07:54:32;6.30;91.30
26186;DHT22;20067;48.764;9.176;2024-03-07T07:56:57;6.30;91.30
26186;DHT22;20067;48.764;9.176;2024-03-07T07:59:23;6.90;91.30
26186;DHT22;20067;48.764;9.176;2024-03-07T08:01:48;6.20;91.30
26186;DHT22;20067;48.764;9.176;2024-03-07T08:04:15;6.10;91.30
26186;DHT22;20067;48.764;9.176;2024-03-07T08:06:41;6.30;91.30
26186;DHT22;20067;48.764;9.176;2024-03-07T08:09:06;6.10;91.30
26186;DHT22;20067;48.764;9.176;2024-03-07T08:11:35;5.80;91.30
26186;DHT22;20067;48.764;9.176;2024-03-07T08:14:02;5.50;91.30
26186;DHT22;20067;48.764;9.176;2024-03-07T08:16:28;6.10;91.30
26186;DHT22;20067;48.764;9.176;2024-03-07T08:18:55;5.90;91.30
26186;DHT22;20067;48.764;9.176;2024-03-07T08:21:21;5.60;91.30
26186;DHT22;20067;48.764;9.176;2024-03-07T08:23:48;5.70;91.30
26186;DHT22;20067;48.764;9.176;2024-03-07T08:26:14;5.70;91.30
26186;DHT22;20067;48.764;9.176;2024-03-07T08:28:41;6.00;91.30
26186;DHT22;20067;48.764;9.176;2024-03-07T08:31:06;6.60;91.30
26186;DHT22;20067;48.764;9.176;2024-03-07T08:33:32;8.10;91.30
26186;DHT22;20067;48.764;9.176;2024-03-07T08:35:59;7.70;91.30
26186;DHT22;20067;48.764;9.176;2024-03-07T08:38:24;6.90;91.30
26186;DHT22;20067;48.764;9.176;2024-03-07T08:40:50;6.30;91.30
26186;DHT22;20067;48.764;9.176;2024-03-07T08:43:16;6.30;91.30
26186;DHT22;20067;48.764;9.176;2024-03-07T08:45:41;6.40;91.30
26186;DHT22;20067;48.764;9.176;2024-03-07T08:48:07;6.50;91.30
26186;DHT22;20067;48.764;9.176;2024-03-07T08:50:34;6.60;91.30
26186;DHT22;20067;48.764;9.176;2024-03-07T08:53:01;7.20;91.30
26186;DHT22;20067;48.764;9.176;2024-03-07T08:55:27;7.30;91.30
26186;DHT22;20067;48.764;9.176;2024-03-07T08:57:52;6.90;91.30
26186;DHT22;20067;48.764;9.176;2024-03-07T09:00:19;6.50;91.30
26186;DHT22;20067;48.764;9.176;2024-03-07T09:02:58;6.30;91.30
26186;DHT22;20067;48.764;9.176;2024-03-07T09:05:24;6.50;91.30
26186;DHT22;20067;48.764;9.176;2024-03-07T09:07:51;7.00;91.30
26186;DHT22;20067;48.764;9.176;2024-03-07T09:10:17;7.10;91.30
26186;DHT22;20067;48.764;9.176;2024-03-07T09:12:43;7.40;91.30
26186;DHT22;20067;48.764;9.176;2024-03-07T09:15:10;7.30;91.30
26186;DHT22;20067;48.764;9.176;2024-03-07T09:17:37;7.10;91.30
26186;DHT22;20067;48.764;9.176;2024-03-07T09:20:03;7.30;91.30
26186;DHT22;20067;48.764;9.176;2024-03-07T09:22:31;7.50;91.30
26186;DHT22;20067;48.764;9.176;2024-03-07T09:24:57;7.50;91.30
26186;DHT22;20067;48.764;9.176;2024-03-07T09:27:22;7.80;91.30
26186;DHT22;20067;48.764;9.176;2024-03-07T09:29:48;7.50;91.30
26186;DHT22;20067;48.764;9.176;2024-03-07T09:32:14;7.90;91.30
26186;DHT22;20067;48.764;9.176;2024-03-07T09:34:40;8.00;91.30
26186;DHT22;20067;48.764;9.176;2024-03-07T09:37:05;7.60;91.30
26186;DHT22;20067;48.764;9.176;2024-03-07T09:39:34;7.50;91.30
26186;DHT22;20067;48.764;9.176;2024-03-07T09:42:04;7.10;91.30
26186;DHT22;20067;48.764;9.176;2024-03-07T09:44:34;7.20;91.30
26186;DHT22;20067;48.764;9.176;2024-03-07T09:47:00;7.70;91.30
26186;DHT22;20067;48.764;9.176;2024-03-07T09:49:28;8.30;91.30
26186;DHT22;20067;48.764;9.176;2024-03-07T09:51:56;9.00;91.30
26186;DHT22;20067;48.764;9.176;2024-03-07T09:54:23;9.10;91.30
26186;DHT22;20067;48.764;9.176;2024-03-07T09:56:53;9.20;91.30
26186;DHT22;20067;48.764;9.176;2024-03-07T09:59:19;8.70;91.30
26186;DHT22;20067;48.764;9.176;2024-03-07T10:01:50;8.50;91.30
26186;DHT22;20067;48.764;9.176;2024-03-07T10:04:20;8.60;91.30
26186;DHT22;20067;48.764;9.176;2024-03-07T10:06:48;8.80;91.30
26186;DHT22;20067;48.764;9.176;2024-03-07T10:09:15;8.90;91.30
26186;DHT22;20067;48.764;9.176;2024-03-07T10:11:41;8.30;91.30
26186;DHT22;20067;48.764;9.176;2024-03-07T10:14:09;9.30;91.30
26186;DHT22;20067;48.764;9.176;2024-03-07T10:16:36;9.70;91.30
26186;DHT22;20067;48.764;9.176;2024-03-07T10:19:05;9.30;91.30
26186;DHT22;20067;48.764;9.176;2024-03-07T10:21:31;9.70;90.70
26186;DHT22;20067;48.764;9.176;2024-03-07T10:24:05;9.60;90.60
26186;DHT22;20067;48.764;9.176;2024-03-07T10:26:35;9.80;90.40
26186;DHT22;20067;48.764;9.176;2024-03-07T10:29:01;8.90;90.70
26186;DHT22;20067;48.764;9.176;2024-03-07T10:31:33;8.30;91.30
26186;DHT22;20067;48.764;9.176;2024-03-07T10:34:03;8.50;91.30
26186;DHT22;20067;48.764;9.176;2024-03-07T10:36:32;9.20;90.80
26186;DHT22;20067;48.764;9.176;2024-03-07T10:39:02;9.00;90.70
26186;DHT22;20067;48.764;9.176;2024-03-07T10:41:45;9.00;91.10
26186;DHT22;20067;48.764;9.176;2024-03-07T10:44:11;9.30;90.80
26186;DHT22;20067;48.764;9.176;2024-03-07T10:46:44;9.50;90.40
26186;DHT22;20067;48.764;9.176;2024-03-07T10:49:14;9.90;89.40
26186;DHT22;20067;48.764;9.176;2024-03-07T10:51:46;9.80;88.40
26186;DHT22;20067;48.764;9.176;2024-03-07T10:54:29;9.40;89.30
26186;DHT22;20067;48.764;9.176;2024-03-07T10:59:50;9.10;90.50
26186;DHT22;20067;48.764;9.176;2024-03-07T11:02:30;9.30;91.00
26186;DHT22;20067;48.764;9.176;2024-03-07T11:04:59;8.80;91.30
26186;DHT22;20067;48.764;9.176;2024-03-07T11:07:26;8.90;91.30
26186;DHT22;20067;48.764;9.176;2024-03-07T11:09:53;9.00;91.30
26186;DHT22;20067;48.764;9.176;2024-03-07T11:12:24;8.50;91.30
26186;DHT22;20067;48.764;9.176;2024-03-07T11:14:54;8.70;91.30
26186;DHT22;20067;48.764;9.176;2024-03-07T11:17:21;9.20;91.30
26186;DHT22;20067;48.764;9.176;2024-03-07T11:19:48;9.20;91.30
26186;DHT22;20067;48.764;9.176;2024-03-07T11:22:33;9.40;91.30
26186;DHT22;20067;48.764;9.176;2024-03-07T11:25:04;9.00;91.30
26186;DHT22;20067;48.764;9.176;2024-03-07T11:27:38;9.10;91.30
26186;DHT22;20067;48.764;9.176;2024-03-07T11:30:06;9.40;91.30
26186;DHT22;20067;48.764;9.176;2024-03-07T11:32:38;9.70;91.30
26186;DHT22;20067;48.764;9.176;2024-03-07T11:35:13;10.60;89.30
26186;DHT22;20067;48.764;9.176;2024-03-07T11:37:48;10.60;88.70
26186;DHT22;20067;48.764;9.176;2024-03-07T11:42:48;11.20;87.50
26186;DHT22;20067;48.764;9.176;2024-03-07T11:45:15;12.00;85.40
26186;DHT22;20067;48.764;9.176;2024-03-07T11:47:54;10.80;86.60
26186;DHT22;20067;48.764;9.176;2024-03-07T11:50:41;10.50;88.40
26186;DHT22;20067;48.764;9.176;2024-03-07T11:53:08;10.90;88.30
26186;DHT22;20067;48.764;9.176;2024-03-07T11:55:43;10.60;87.90
26186;DHT22;20067;48.764;9.176;2024-03-07T11:58:13;10.20;88.90
26186;DHT22;20067;48.764;9.176;2024-03-07T12:00:45;10.50;89.00
26186;DHT22;20067;48.764;9.176;2024-03-07T12:03:15;10.00;89.80
26186;DHT22;20067;48.764;9.176;2024-03-07T12:05:49;9.40;91.30
26186;DHT22;20067;48.764;9.176;2024-03-07T12:08:17;9.10;91.30
26186;DHT22;20067;48.764;9.176;2024-03-07T12:10:43;9.00;91.30
26186;DHT22;20067;48.764;9.176;2024-03-07T12:13:10;8.90;91.30
26186;DHT22;20067;48.764;9.176;2024-03-07T12:15:45;8.90;91.30
26186;DHT22;20067;48.764;9.176;2024-03-07T12:18:12;8.90;91.30
26186;DHT22;20067;48.764;9.176;2024-03-07T12:20:43;8.80;91.30
26186;DHT22;20067;48.764;9.176;2024-03-07T12:23:12;8.60;91.30
26186;DHT22;20067;48.764;9.176;2024-03-07T12:25:39;8.50;91.30
26186;DHT22;20067;48.764;9.176;2024-03-07T12:28:12;8.60;91.30
26186;DHT22;20067;48.764;9.176;2024-03-07T12:30:49;8.60;91.30
26186;DHT22;20067;48.764;9.176;2024-03-07T12:33:17;8.70;91.30
26186;DHT22;20067;48.764;9.176;2024-03-07T12:35:53;9.00;91.30
26186;DHT22;20067;48.764;9.176;2024-03-07T12:38:25;8.70;91.30
26186;DHT22;20067;48.764;9.176;2024-03-07T12:41:08;8.60;91.30
26186;DHT22;20067;48.764;9.176;2024-03-07T12:43:41;8.60;91.30
26186;DHT22;20067;48.764;9.176;2024-03-07T12:46:12;8.90;91.30
26186;DHT22;20067;48.764;9.176;2024-03-07T12:48:41;8.90;91.30
26186;DHT22;20067;48.764;9.176;2024-03-07T12:51:07;8.80;91.30
26186;DHT22;20067;48.764;9.176;2024-03-07T12:53:32;8.40;91.30
26186;DHT22;20067;48.764;9.176;2024-03-07T12:56:00;8.30;91.30
26186;DHT22;20067;48.764;9.176;2024-03-07T12:58:26;8.40;91.30
26186;DHT22;20067;48.764;9.176;2024-03-07T13:00:55;8.70;91.30
26186;DHT22;20067;48.764;9.176;2024-03-07T13:03:21;8.70;91.30
26186;DHT22;20067;48.764;9.176;2024-03-07T13:05:47;8.80;91.30
26186;DHT22;20067;48.764;9.176;2024-03-07T13:08:13;8.90;91.30
26186;DHT22;20067;48.764;9.176;2024-03-07T13:10:39;8.60;91.30
26186;DHT22;20067;48.764;9.176;2024-03-07T13:13:06;8.70;91.30
26186;DHT22;20067;48.764;9.176;2024-03-07T13:15:32;8.60;91.30
26186;DHT22;20067;48.764;9.176;2024-03-07T13:17:57;8.70;91.30
26186;DHT22;20067;48.764;9.176;2024-03-07T13:20:23;9.00;91.30
26186;DHT22;20067;48.764;9.176;2024-03-07T13:22:52;9.00;91.30
26186;DHT22;20067;48.764;9.176;2024-03-07T13:25:23;8.70;91.30
26186;DHT22;20067;48.764;9.176;2024-03-07T13:27:56;9.00;91.30
26186;DHT22;20067;48.764;9.176;2024-03-07T13:30:26;8.80;91.30
26186;DHT22;20067;48.764;9.176;2024-03-07T13:32:59;8.60;91.30
26186;DHT22;20067;48.764;9.176;2024-03-07T13:35:25;8.30;91.30
26186;DHT22;20067;48.764;9.176;2024-03-07T13:37:52;8.30;91.30
26186;DHT22;20067;48.764;9.176;2024-03-07T13:40:25;8.40;91.30
26186;DHT22;20067;48.764;9.176;2024-03-07T13:42:55;8.50;91.30
26186;DHT22;20067;48.764;9.176;2024-03-07T13:45:26;8.80;91.30
26186;DHT22;20067;48.764;9.176;2024-03-07T13:47:55;9.00;91.30
26186;DHT22;20067;48.764;9.176;2024-03-07T13:50:24;8.90;91.30
26186;DHT22;20067;48.764;9.176;2024-03-07T13:52:52;8.70;91.30
26186;DHT22;20067;48.764;9.176;2024-03-07T13:58:17;8.80;91.30
26186;DHT22;20067;48.764;9.176;2024-03-07T14:00:56;8.70;91.30
26186;DHT22;20067;48.764;9.176;2024-03-07T14:32:11;9.20;91.30
26186;DHT22;20067;48.764;9.176;2024-03-07T14:34:41;9.40;91.30
26186;DHT22;20067;48.764;9.176;2024-03-07T14:37:19;9.50;91.30
26186;DHT22;20067;48.764;9.176;2024-03-07T14:39:49;9.50;91.30
26186;DHT22;20067;48.764;9.176;2024-03-07T14:42:16;9.60;91.30
26186;DHT22;20067;48.764;9.176;2024-03-07T14:44:43;9.40;91.30
26186;DHT22;20067;48.764;9.176;2024-03-07T14:47:12;9.10;91.30
26186;DHT22;20067;48.764;9.176;2024-03-07T14:49:39;9.10;91.30
26186;DHT22;20067;48.764;9.176;2024-03-07T14:52:16;9.10;91.30
26186;DHT22;20067;48.764;9.176;2024-03-07T14:54:42;9.30;91.30
26186;DHT22;20067;48.764;9.176;2024-03-07T14:57:08;9.40;91.30
26186;DHT22;20067;48.764;9.176;2024-03-07T14:59:37;9.40;91.20
26186;DHT22;20067;48.764;9.176;2024-03-07T15:02:04;9.40;91.20
26186;DHT22;20067;48.764;9.176;2024-03-07T15:04:36;9.40;90.70
26186;DHT22;20067;48.764;9.176;2024-03-07T15:07:02;9.30;90.60
26186;DHT22;20067;48.764;9.176;2024-03-07T15:09:28;9.40;90.80
26186;DHT22;20067;48.764;9.176;2024-03-07T15:11:59;9.60;90.40
26186;DHT22;20067;48.764;9.176;2024-03-07T15:14:24;9.90;90.50
26186;DHT22;20067;48.764;9.176;2024-03-07T15:16:50;10.40;88.80
26186;DHT22;20067;48.764;9.176;2024-03-07T15:19:18;9.90;89.00
26186;DHT22;20067;48.764;9.176;2024-03-07T15:21:44;9.80;89.80
26186;DHT22;20067;48.764;9.176;2024-03-07T15:24:10;9.70;90.10
26186;DHT22;20067;48.764;9.176;2024-03-07T15:26:36;9.90;90.00
26186;DHT22;20067;48.764;9.176;2024-03-07T15:29:02;9.80;89.70
26186;DHT22;20067;48.764;9.176;2024-03-07T15:31:28;9.70;89.50
26186;DHT22;20067;48.764;9.176;2024-03-07T15:33:53;9.40;90.40
26186;DHT22;20067;48.764;9.176;2024-03-07T15:36:20;9.20;91.20
26186;DHT22;20067;48.764;9.176;2024-03-07T15:38:49;9.20;90.90
26186;DHT22;20067;48.764;9.176;2024-03-07T15:41:15;9.40;90.60
26186;DHT22;20067;48.764;9.176;2024-03-07T15:43:41;9.30;90.40
26186;DHT22;20067;48.764;9.176;2024-03-07T15:46:14;9.20;91.20
26186;DHT22;20067;48.764;9.176;2024-03-07T15:48:44;9.50;90.80
26186;DHT22;20067;48.764;9.176;2024-03-07T15:51:11;9.40;90.60
26186;DHT22;20067;48.764;9.176;2024-03-07T15:53:37;9.60;90.80
26186;DHT22;20067;48.764;9.176;2024-03-07T15:56:04;9.80;90.20
26186;DHT22;20067;48.764;9.176;2024-03-07T15:58:32;9.80;89.80
26186;DHT22;20067;48.764;9.176;2024-03-07T16:00:58;9.80;89.50
26186;DHT22;20067;48.764;9.176;2024-03-07T16:03:23;9.90;89.00
26186;DHT22;20067;48.764;9.176;2024-03-07T16:05:50;9.30;89.30
26186;DHT22;20067;48.764;9.176;2024-03-07T16:08:17;9.20;90.20
26186;DHT22;20067;48.764;9.176;2024-03-07T16:10:43;9.10;90.40
26186;DHT22;20067;48.764;9.176;2024-03-07T16:13:12;9.00;90.70
26186;DHT22;20067;48.764;9.176;2024-03-07T16:15:41;8.90;90.80
26186;DHT22;20067;48.764;9.176;2024-03-07T16:18:08;8.90;91.10
26186;DHT22;20067;48.764;9.176;2024-03-07T16:20:35;8.70;91.30
26186;DHT22;20067;48.764;9.176;2024-03-07T16:23:01;8.70;91.30
26186;DHT22;20067;48.764;9.176;2024-03-07T16:25:30;8.80;91.30